createdAt,value
2018-12-31T00:01:44.072Z,9.08
2018-12-31T00:04:14.344Z,9.08
2018-12-31T00:06:45.013Z,9.06
2018-12-31T00:09:15.755Z,9.08
2018-12-31T00:11:46.046Z,9.07
2018-12-31T00:14:16.629Z,9.08
2018-12-31T00:16:47.111Z,9.08
2018-12-31T00:19:17.529Z,9.09
2018-12-31T00:21:48.226Z,9.09
2018-12-31T00:24:18.684Z,9.09
2018-12-31T00:26:49.032Z,9.10
2018-12-31T00:29:19.460Z,9.10
2018-12-31T00:31:50.239Z,9.09
2018-12-31T00:34:20.477Z,9.08
2018-12-31T00:36:51.052Z,9.10
2018-12-31T00:39:21.647Z,9.09
2018-12-31T00:41:52.570Z,9.12
2018-12-31T00:44:22.947Z,9.12
2018-12-31T00:46:53.176Z,9.13
2018-12-31T00:49:23.586Z,9.13
2018-12-31T00:51:54.358Z,9.16
2018-12-31T00:54:25.027Z,9.13
2018-12-31T00:56:55.936Z,9.13
2018-12-31T00:59:26.295Z,9.12
2018-12-31T01:01:56.589Z,9.11
2018-12-31T01:04:27.158Z,9.13
2018-12-31T01:06:57.431Z,9.13
2018-12-31T01:09:27.740Z,9.13
2018-12-31T01:11:58.418Z,9.14
2018-12-31T01:14:28.702Z,9.13
2018-12-31T01:16:59.419Z,9.13
2018-12-31T01:19:30.021Z,9.16
2018-12-31T01:22:00.225Z,9.15
2018-12-31T01:24:30.516Z,9.15
2018-12-31T01:27:01.501Z,9.16
2018-12-31T01:29:31.917Z,9.18
2018-12-31T01:32:02.298Z,9.17
2018-12-31T01:34:32.875Z,9.22
2018-12-31T01:37:03.208Z,9.20
2018-12-31T01:39:33.467Z,9.16
2018-12-31T01:42:04.115Z,9.19
2018-12-31T01:44:34.502Z,9.21
2018-12-31T01:47:05.243Z,9.22
2018-12-31T01:49:35.730Z,9.21
2018-12-31T01:52:06.144Z,9.20
2018-12-31T01:54:36.548Z,9.23
2018-12-31T01:57:06.989Z,9.24
2018-12-31T01:59:37.351Z,9.26
2018-12-31T02:02:08.099Z,9.22
2018-12-31T02:04:38.527Z,9.26
2018-12-31T02:07:09.005Z,9.27
2018-12-31T02:09:39.283Z,9.26
2018-12-31T02:12:09.790Z,9.30
2018-12-31T02:14:40.228Z,9.27
2018-12-31T02:17:11.175Z,9.30
2018-12-31T02:19:42.009Z,9.30
2018-12-31T02:22:12.557Z,9.28
2018-12-31T02:24:42.854Z,9.28
2018-12-31T02:27:13.488Z,9.29
2018-12-31T02:29:43.908Z,9.30
2018-12-31T02:32:14.502Z,9.28
2018-12-31T02:34:44.832Z,9.28
2018-12-31T02:37:15.495Z,9.27
2018-12-31T02:39:45.894Z,9.26
2018-12-31T02:42:16.176Z,9.26
2018-12-31T02:44:46.438Z,9.27
2018-12-31T02:47:17.155Z,9.28
2018-12-31T02:49:47.673Z,9.25
2018-12-31T02:52:18.125Z,9.28
2018-12-31T02:54:48.423Z,9.29
2018-12-31T02:57:18.902Z,9.30
2018-12-31T02:59:49.692Z,9.34
2018-12-31T03:02:20.114Z,9.32
2018-12-31T03:04:50.459Z,9.32
2018-12-31T03:07:20.839Z,9.31
2018-12-31T03:09:51.492Z,9.29
2018-12-31T03:12:21.924Z,9.34
2018-12-31T03:14:52.233Z,9.33
2018-12-31T03:17:22.612Z,9.33
2018-12-31T03:19:52.956Z,9.33
2018-12-31T03:22:23.240Z,9.33
2018-12-31T03:24:53.769Z,9.34
2018-12-31T03:27:24.067Z,9.31
2018-12-31T03:29:54.449Z,9.32
2018-12-31T03:32:24.870Z,9.33
2018-12-31T03:34:55.325Z,9.34
2018-12-31T03:37:26.041Z,9.35
2018-12-31T03:39:56.376Z,9.34
2018-12-31T03:42:26.854Z,9.36
2018-12-31T03:44:57.795Z,9.32
2018-12-31T03:47:28.629Z,9.34
2018-12-31T03:49:58.926Z,9.35
2018-12-31T03:52:29.315Z,9.34
2018-12-31T03:54:59.771Z,9.34
2018-12-31T03:57:30.307Z,9.37
2018-12-31T04:00:00.760Z,9.35
2018-12-31T04:02:31.302Z,9.34
2018-12-31T04:05:01.645Z,9.38
2018-12-31T04:07:32.134Z,9.37
2018-12-31T04:10:02.899Z,9.38
2018-12-31T04:12:33.198Z,9.38
2018-12-31T04:15:03.655Z,9.39
2018-12-31T04:17:34.100Z,9.36
2018-12-31T04:20:05.052Z,9.39
2018-12-31T04:22:35.257Z,9.38
2018-12-31T04:25:05.699Z,9.40
2018-12-31T04:27:36.067Z,9.43
2018-12-31T04:30:06.667Z,9.45
2018-12-31T04:32:36.962Z,9.44
2018-12-31T04:35:07.786Z,9.46
2018-12-31T04:37:38.224Z,9.45
2018-12-31T04:40:08.676Z,9.45
2018-12-31T04:42:38.892Z,9.45
2018-12-31T04:45:09.548Z,9.45
2018-12-31T04:47:40.780Z,9.44
2018-12-31T04:50:11.298Z,9.43
2018-12-31T04:52:41.560Z,9.45
2018-12-31T04:55:12.224Z,9.45
2018-12-31T04:57:42.866Z,9.46
2018-12-31T05:00:13.316Z,9.47
2018-12-31T05:02:43.699Z,9.48
2018-12-31T05:05:14.079Z,9.48
2018-12-31T05:07:44.490Z,9.49
2018-12-31T05:10:14.855Z,9.48
2018-12-31T05:12:45.046Z,9.51
2018-12-31T05:15:15.748Z,9.53
2018-12-31T05:17:46.300Z,9.53
2018-12-31T05:20:16.500Z,9.53
2018-12-31T05:22:46.837Z,9.54
2018-12-31T05:25:17.171Z,9.56
2018-12-31T05:27:47.361Z,9.60
2018-12-31T05:30:17.848Z,9.56
2018-12-31T05:32:48.107Z,9.57
2018-12-31T05:35:18.559Z,9.58
2018-12-31T05:37:48.830Z,9.57
2018-12-31T05:40:20.398Z,9.59
2018-12-31T05:42:50.687Z,9.58
2018-12-31T05:45:21.473Z,9.58
2018-12-31T05:47:51.793Z,9.58
2018-12-31T05:50:22.171Z,9.58
2018-12-31T05:52:52.492Z,9.58
2018-12-31T05:55:23.066Z,9.59
2018-12-31T05:57:53.397Z,9.58
2018-12-31T06:00:23.824Z,9.60
2018-12-31T06:02:54.185Z,9.60
2018-12-31T06:05:24.633Z,9.58
2018-12-31T06:07:54.913Z,9.58
2018-12-31T06:10:25.242Z,9.57
2018-12-31T06:12:55.604Z,9.56
2018-12-31T06:15:25.891Z,9.55
2018-12-31T06:17:56.171Z,9.53
2018-12-31T06:20:26.447Z,9.55
2018-12-31T06:22:56.853Z,9.56
2018-12-31T06:25:27.626Z,9.56
2018-12-31T06:27:58.054Z,9.56
2018-12-31T06:30:28.819Z,9.58
2018-12-31T06:32:59.060Z,9.56
2018-12-31T06:35:29.482Z,9.59
2018-12-31T06:37:59.783Z,9.56
2018-12-31T06:40:30.231Z,9.60
2018-12-31T06:43:00.857Z,9.62
2018-12-31T06:45:31.179Z,9.61
2018-12-31T06:48:01.477Z,9.61
2018-12-31T06:50:31.973Z,9.62
2018-12-31T06:53:02.741Z,9.62
2018-12-31T06:55:33.032Z,9.64
2018-12-31T06:58:03.471Z,9.65
2018-12-31T07:00:33.851Z,9.66
2018-12-31T07:03:04.182Z,9.67
2018-12-31T07:05:34.500Z,9.68
2018-12-31T07:08:06.440Z,9.74
2018-12-31T07:10:36.853Z,9.71
2018-12-31T07:13:07.147Z,9.68
2018-12-31T07:15:37.353Z,9.70
2018-12-31T07:18:07.594Z,9.70
2018-12-31T07:20:38.175Z,9.66
2018-12-31T07:23:08.694Z,9.65
2018-12-31T07:25:39.105Z,9.62
2018-12-31T07:28:10.090Z,9.61
2018-12-31T07:30:40.310Z,9.59
2018-12-31T07:33:10.645Z,9.62
2018-12-31T07:35:41.060Z,9.62
2018-12-31T07:38:11.882Z,9.65
2018-12-31T07:40:44.399Z,9.62
2018-12-31T07:43:15.093Z,9.64
2018-12-31T07:45:45.447Z,9.67
2018-12-31T07:48:15.769Z,9.69
2018-12-31T07:50:46.190Z,9.69
2018-12-31T07:53:16.506Z,9.72
2018-12-31T07:55:47.230Z,9.73
2018-12-31T07:58:17.746Z,9.76
2018-12-31T08:00:51.356Z,9.78
2018-12-31T08:03:21.788Z,9.80
2018-12-31T08:05:52.637Z,9.82
2018-12-31T08:08:23.152Z,9.84
2018-12-31T08:10:54.584Z,9.84
2018-12-31T08:13:24.920Z,9.83
2018-12-31T08:15:56.276Z,9.80
2018-12-31T08:18:27.136Z,9.80
2018-12-31T08:20:57.431Z,9.83
2018-12-31T08:23:28.282Z,9.87
2018-12-31T08:25:58.692Z,9.89
2018-12-31T08:28:29.127Z,9.90
2018-12-31T08:30:59.425Z,9.91
2018-12-31T08:33:29.770Z,9.89
2018-12-31T08:36:00.071Z,9.91
2018-12-31T08:38:30.464Z,9.92
2018-12-31T08:41:00.984Z,9.90
2018-12-31T08:43:31.481Z,9.90
2018-12-31T08:46:03.308Z,9.92
2018-12-31T08:48:34.303Z,9.91
2018-12-31T08:51:04.732Z,9.95
2018-12-31T08:53:35.036Z,9.95
2018-12-31T08:56:05.596Z,9.94
2018-12-31T08:58:36.546Z,9.97
2018-12-31T09:01:11.181Z,9.97
2018-12-31T09:03:41.430Z,9.93
2018-12-31T09:06:11.828Z,9.95
2018-12-31T09:08:42.260Z,9.95
2018-12-31T09:11:15.133Z,9.95
2018-12-31T09:13:47.981Z,9.98
2018-12-31T09:16:18.643Z,10.00
2018-12-31T09:18:49.567Z,9.98
2018-12-31T09:21:20.450Z,10.02
2018-12-31T09:23:51.030Z,9.98
2018-12-31T09:26:21.599Z,10.01
2018-12-31T09:28:52.647Z,9.99
2018-12-31T09:31:23.467Z,9.99
2018-12-31T09:33:54.115Z,10.01
2018-12-31T09:36:24.675Z,9.98
2018-12-31T09:38:55.044Z,9.99
2018-12-31T09:41:26.064Z,9.97
2018-12-31T09:43:58.176Z,9.97
2018-12-31T09:46:30.491Z,10.02
2018-12-31T09:49:01.046Z,10.02
2018-12-31T09:51:31.763Z,10.00
2018-12-31T09:54:02.352Z,10.09
2018-12-31T09:56:33.071Z,10.08
2018-12-31T09:59:07.469Z,10.12
2018-12-31T10:01:38.422Z,10.15
2018-12-31T10:04:09.127Z,10.14
2018-12-31T10:06:40.075Z,10.16
2018-12-31T10:09:18.665Z,10.14
2018-12-31T10:11:49.996Z,10.14
2018-12-31T10:14:21.277Z,10.13
2018-12-31T10:16:52.494Z,10.12
2018-12-31T10:19:23.230Z,10.12
2018-12-31T10:21:54.056Z,10.13
2018-12-31T10:24:24.728Z,10.12
2018-12-31T10:26:57.345Z,10.15
2018-12-31T10:29:35.801Z,10.18
2018-12-31T10:32:00.892Z,10.19
2018-12-31T10:34:32.203Z,10.26
2018-12-31T10:37:03.539Z,10.21
2018-12-31T10:39:33.910Z,10.22
2018-12-31T10:42:04.394Z,10.24
2018-12-31T10:44:35.093Z,10.25
2018-12-31T10:47:05.775Z,10.20
2018-12-31T10:49:36.229Z,10.29
2018-12-31T10:52:08.935Z,10.32
2018-12-31T10:54:39.494Z,10.37
2018-12-31T10:57:10.133Z,10.41
2018-12-31T10:59:43.938Z,10.44
2018-12-31T11:02:16.489Z,10.47
2018-12-31T11:04:49.873Z,10.49
2018-12-31T11:07:20.845Z,10.50
2018-12-31T11:09:52.140Z,10.46
2018-12-31T11:12:22.911Z,10.46
2018-12-31T11:14:53.722Z,10.63
2018-12-31T11:17:25.075Z,10.50
2018-12-31T11:19:55.539Z,10.46
2018-12-31T11:22:26.176Z,10.44
2018-12-31T11:24:57.073Z,10.35
2018-12-31T11:27:27.740Z,10.32
2018-12-31T11:29:58.437Z,10.29
2018-12-31T11:32:28.811Z,10.32
2018-12-31T11:34:59.223Z,10.33
2018-12-31T11:37:34.612Z,10.29
2018-12-31T11:40:03.948Z,10.32
2018-12-31T11:42:34.269Z,10.25
2018-12-31T11:45:04.986Z,10.24
2018-12-31T11:47:35.441Z,10.28
2018-12-31T11:50:06.346Z,10.21
2018-12-31T11:52:37.009Z,10.23
2018-12-31T11:55:07.541Z,10.26
2018-12-31T11:57:38.147Z,10.27
2018-12-31T12:00:10.285Z,10.29
2018-12-31T12:02:40.689Z,10.32
2018-12-31T12:05:11.099Z,10.32
2018-12-31T12:07:41.547Z,10.33
2018-12-31T12:10:11.884Z,10.33
2018-12-31T12:12:42.367Z,10.30
2018-12-31T12:15:13.187Z,10.34
2018-12-31T12:17:43.548Z,10.38
2018-12-31T12:20:14.237Z,10.43
2018-12-31T12:22:45.528Z,10.46
2018-12-31T12:25:16.303Z,10.42
2018-12-31T12:27:49.737Z,10.44
2018-12-31T12:30:20.209Z,10.44
2018-12-31T12:32:52.745Z,10.48
2018-12-31T12:35:23.350Z,10.48
2018-12-31T12:37:53.742Z,10.48
2018-12-31T12:40:24.167Z,10.44
2018-12-31T12:42:54.839Z,10.43
2018-12-31T12:45:25.233Z,10.41
2018-12-31T12:47:56.020Z,10.35
2018-12-31T12:50:26.726Z,10.32
2018-12-31T12:52:57.966Z,10.33
2018-12-31T12:55:28.637Z,10.37
2018-12-31T12:57:59.057Z,10.36
2018-12-31T13:00:29.745Z,10.35
2018-12-31T13:03:00.287Z,10.35
2018-12-31T13:05:31.487Z,10.39
2018-12-31T13:08:02.482Z,10.38
2018-12-31T13:10:33.673Z,10.43
2018-12-31T13:13:04.617Z,10.38
2018-12-31T13:15:35.287Z,10.35
2018-12-31T13:18:05.879Z,10.34
2018-12-31T13:20:36.464Z,10.35
2018-12-31T13:23:07.287Z,10.35
2018-12-31T13:25:37.975Z,10.37
2018-12-31T13:28:08.786Z,10.34
2018-12-31T13:30:39.613Z,10.36
2018-12-31T13:33:12.047Z,10.38
2018-12-31T13:35:42.577Z,10.42
2018-12-31T13:38:13.352Z,10.41
2018-12-31T13:40:44.101Z,10.39
2018-12-31T13:43:15.111Z,10.37
2018-12-31T13:45:46.056Z,10.35
2018-12-31T13:48:16.926Z,10.39
2018-12-31T13:50:47.943Z,10.34
2018-12-31T13:53:20.366Z,10.38
2018-12-31T13:55:52.195Z,10.38
2018-12-31T13:58:25.564Z,10.40
2018-12-31T14:00:56.155Z,10.37
2018-12-31T14:03:27.097Z,10.38
2018-12-31T14:05:57.947Z,10.39
2018-12-31T14:08:29.176Z,10.35
2018-12-31T14:11:00.356Z,10.37
2018-12-31T14:13:30.928Z,10.33
2018-12-31T14:16:01.525Z,10.36
2018-12-31T14:18:32.423Z,10.36
2018-12-31T14:21:03.476Z,10.36
2018-12-31T14:23:34.549Z,10.37
2018-12-31T14:26:05.168Z,10.35
2018-12-31T14:28:36.113Z,10.35
2018-12-31T14:31:07.077Z,10.35
2018-12-31T14:33:38.759Z,10.39
2018-12-31T14:36:09.244Z,10.36
2018-12-31T14:38:42.780Z,10.38
2018-12-31T14:41:13.066Z,10.37
2018-12-31T14:43:43.488Z,10.40
2018-12-31T14:46:14.860Z,10.36
2018-12-31T14:48:45.504Z,10.36
2018-12-31T14:51:16.687Z,10.36
2018-12-31T14:53:47.196Z,10.39
2018-12-31T14:56:17.689Z,10.40
2018-12-31T14:58:48.363Z,10.41
2018-12-31T15:01:18.779Z,10.38
2018-12-31T15:03:50.000Z,10.39
2018-12-31T15:06:20.497Z,10.34
2018-12-31T15:08:53.176Z,10.32
2018-12-31T15:11:23.665Z,10.31
2018-12-31T15:13:54.341Z,10.32
2018-12-31T15:16:28.052Z,10.30
2018-12-31T15:18:58.491Z,10.28
2018-12-31T15:21:28.923Z,10.29
2018-12-31T15:24:26.507Z,10.26
2018-12-31T15:27:17.861Z,10.27
2018-12-31T15:29:50.454Z,10.26
2018-12-31T15:32:20.914Z,10.24
2018-12-31T15:34:52.529Z,10.32
2018-12-31T15:37:23.458Z,10.29
2018-12-31T15:39:55.572Z,10.25
2018-12-31T15:42:27.996Z,10.25
2018-12-31T15:44:59.066Z,10.23
2018-12-31T15:47:29.579Z,10.20
2018-12-31T15:50:00.306Z,10.19
2018-12-31T15:52:30.696Z,10.14
2018-12-31T15:55:01.595Z,10.10
2018-12-31T15:57:32.040Z,10.16
2018-12-31T16:00:02.587Z,10.16
2018-12-31T16:02:33.528Z,10.12
2018-12-31T16:05:04.336Z,10.11
2018-12-31T16:07:45.634Z,10.09
2018-12-31T16:10:13.015Z,10.09
2018-12-31T16:12:43.796Z,10.11
2018-12-31T16:15:14.502Z,10.09
2018-12-31T16:17:45.565Z,10.08
2018-12-31T16:20:16.445Z,10.18
2018-12-31T16:22:47.011Z,10.11
2018-12-31T16:25:17.663Z,10.11
2018-12-31T16:27:48.274Z,10.11
2018-12-31T16:30:19.094Z,10.14
2018-12-31T16:32:49.764Z,10.11
2018-12-31T16:35:22.035Z,10.08
2018-12-31T16:37:54.282Z,10.06
2018-12-31T16:40:32.984Z,10.05
2018-12-31T16:43:03.639Z,10.05
2018-12-31T16:45:34.753Z,10.02
2018-12-31T16:48:05.631Z,10.00
2018-12-31T16:50:36.378Z,10.00
2018-12-31T16:53:07.219Z,9.99
2018-12-31T16:55:37.764Z,10.02
2018-12-31T16:58:08.016Z,9.99
2018-12-31T17:00:38.933Z,10.03
2018-12-31T17:03:09.411Z,10.00
2018-12-31T17:05:40.151Z,10.01
2018-12-31T17:08:10.836Z,9.98
2018-12-31T17:10:41.203Z,10.04
2018-12-31T17:13:13.701Z,10.04
2018-12-31T17:15:45.653Z,10.00
2018-12-31T17:18:16.138Z,10.00
2018-12-31T17:20:47.093Z,10.00
2018-12-31T17:23:17.729Z,10.00
2018-12-31T17:25:48.379Z,10.03
2018-12-31T17:28:18.899Z,10.00
2018-12-31T17:30:49.495Z,10.06
2018-12-31T17:33:20.090Z,10.02
2018-12-31T17:35:50.366Z,10.00
2018-12-31T17:38:22.522Z,10.01
2018-12-31T17:41:01.921Z,10.05
2018-12-31T17:43:32.452Z,10.05
2018-12-31T17:46:03.025Z,10.04
2018-12-31T17:48:36.547Z,10.02
2018-12-31T17:51:07.592Z,10.00
2018-12-31T17:53:38.498Z,9.98
2018-12-31T17:56:09.348Z,9.94
2018-12-31T17:58:40.996Z,9.95
2018-12-31T18:01:16.940Z,9.93
2018-12-31T18:03:47.898Z,9.93
2018-12-31T18:06:18.503Z,9.94
2018-12-31T18:08:54.774Z,9.93
2018-12-31T18:11:28.629Z,9.94
2018-12-31T18:14:05.567Z,9.92
2018-12-31T18:16:36.653Z,9.91
2018-12-31T18:19:07.731Z,9.89
2018-12-31T18:21:38.845Z,9.89
2018-12-31T18:24:18.359Z,9.89
2018-12-31T18:26:52.398Z,9.90
2018-12-31T18:29:29.936Z,9.89
2018-12-31T18:32:11.833Z,9.87
2018-12-31T18:34:42.492Z,9.86
2018-12-31T18:37:16.748Z,9.86
2018-12-31T18:39:49.254Z,9.84
2018-12-31T18:42:25.817Z,9.82
2018-12-31T18:45:09.661Z,9.80
2018-12-31T18:47:42.172Z,9.79
2018-12-31T18:50:14.126Z,9.77
2018-12-31T18:52:48.877Z,9.73
2018-12-31T18:55:24.894Z,9.72
2018-12-31T18:57:57.947Z,9.68
2018-12-31T19:00:29.994Z,9.70
2018-12-31T19:03:18.841Z,9.68
2018-12-31T19:06:13.186Z,9.70
2018-12-31T19:09:05.709Z,9.67
2018-12-31T19:11:41.176Z,9.66
2018-12-31T19:14:12.096Z,9.67
2018-12-31T19:16:42.818Z,9.67
2018-12-31T19:19:25.302Z,9.62
2018-12-31T19:21:57.346Z,9.63
2018-12-31T19:24:51.076Z,9.62
2018-12-31T19:27:23.758Z,9.61
2018-12-31T19:29:57.734Z,9.61
2018-12-31T19:32:28.904Z,9.58
2018-12-31T19:35:07.110Z,9.59
2018-12-31T19:37:40.551Z,9.58
2018-12-31T19:40:21.347Z,9.54
2018-12-31T19:43:00.444Z,9.53
2018-12-31T19:45:33.509Z,9.53
2018-12-31T19:48:04.625Z,9.52
2018-12-31T19:50:35.839Z,9.52
2018-12-31T19:53:06.424Z,9.50
2018-12-31T19:55:37.228Z,9.56
2018-12-31T19:58:07.580Z,9.52
2018-12-31T20:00:37.999Z,9.56
2018-12-31T20:03:08.499Z,9.46
2018-12-31T20:05:39.427Z,9.47
2018-12-31T20:08:09.899Z,9.46
2018-12-31T20:10:42.308Z,9.45
2018-12-31T20:13:12.846Z,9.41
2018-12-31T20:15:48.552Z,9.44
2018-12-31T20:18:16.029Z,9.43
2018-12-31T20:20:46.773Z,9.40
2018-12-31T20:23:18.160Z,9.39
2018-12-31T20:25:48.758Z,9.41
2018-12-31T20:28:19.540Z,9.44
2018-12-31T20:30:50.517Z,9.37
2018-12-31T20:33:21.482Z,9.36
2018-12-31T20:35:59.156Z,9.39
2018-12-31T20:38:30.291Z,9.36
2018-12-31T20:41:13.773Z,9.35
2018-12-31T20:44:00.361Z,9.34
2018-12-31T20:46:34.656Z,9.34
2018-12-31T20:49:08.905Z,9.38
2018-12-31T20:51:45.085Z,9.33
2018-12-31T20:54:19.129Z,9.36
2018-12-31T20:57:07.138Z,9.37
2018-12-31T20:59:38.071Z,9.33
2018-12-31T21:02:10.357Z,9.31
2018-12-31T21:04:44.559Z,9.32
2018-12-31T21:07:16.567Z,9.30
2018-12-31T21:09:47.521Z,9.26
2018-12-31T21:12:18.477Z,9.29
2018-12-31T21:14:49.088Z,9.27
2018-12-31T21:17:19.953Z,9.28
2018-12-31T21:19:51.130Z,9.28
2018-12-31T21:22:21.712Z,9.25
2018-12-31T21:24:52.650Z,9.23
2018-12-31T21:27:24.146Z,9.24
2018-12-31T21:29:56.779Z,9.22
2018-12-31T21:32:28.276Z,9.26
2018-12-31T21:35:07.180Z,9.24
2018-12-31T21:37:37.751Z,9.23
2018-12-31T21:40:10.577Z,9.24
2018-12-31T21:42:41.222Z,9.19
2018-12-31T21:45:11.740Z,9.18
2018-12-31T21:47:42.579Z,9.19
2018-12-31T21:50:16.609Z,9.23
2018-12-31T21:52:47.813Z,9.21
2018-12-31T21:55:24.605Z,9.18
2018-12-31T21:57:56.077Z,9.21
2018-12-31T22:00:26.704Z,9.21
2018-12-31T22:03:04.501Z,9.22
2018-12-31T22:05:35.318Z,9.22
2018-12-31T22:08:05.925Z,9.25
2018-12-31T22:10:36.919Z,9.26
2018-12-31T22:13:07.865Z,9.24
2018-12-31T22:15:38.398Z,9.24
2018-12-31T22:18:09.169Z,9.22
2018-12-31T22:20:39.770Z,9.24
2018-12-31T22:23:10.676Z,9.22
2018-12-31T22:25:41.413Z,9.24
2018-12-31T22:28:11.897Z,9.27
2018-12-31T22:30:42.299Z,9.21
2018-12-31T22:33:13.026Z,9.21
2018-12-31T22:35:43.889Z,9.19
2018-12-31T22:38:15.882Z,9.17
2018-12-31T22:40:47.987Z,9.11
2018-12-31T22:43:18.442Z,9.07
2018-12-31T22:45:49.332Z,9.06
2018-12-31T22:48:19.676Z,9.00
2018-12-31T22:50:50.281Z,8.97
2018-12-31T22:53:21.658Z,8.87
2018-12-31T22:55:52.693Z,8.86
2018-12-31T22:58:23.911Z,8.85
2018-12-31T23:00:54.601Z,8.82
2018-12-31T23:03:25.199Z,8.84
2018-12-31T23:05:56.030Z,8.86
2018-12-31T23:08:26.666Z,8.80
2018-12-31T23:10:57.342Z,8.82
2018-12-31T23:13:32.575Z,8.80
2018-12-31T23:16:03.191Z,8.80
2018-12-31T23:18:34.028Z,8.80
2018-12-31T23:21:04.563Z,8.85
2018-12-31T23:23:35.108Z,8.84
2018-12-31T23:26:05.583Z,8.80
2018-12-31T23:28:36.129Z,8.82
2018-12-31T23:31:06.597Z,8.79
2018-12-31T23:33:37.295Z,8.81
2018-12-31T23:36:07.754Z,8.83
2018-12-31T23:38:38.928Z,8.83
2018-12-31T23:41:09.687Z,8.79
2018-12-31T23:43:40.217Z,8.77
2018-12-31T23:46:10.885Z,8.81
2018-12-31T23:48:41.343Z,8.82
2018-12-31T23:51:11.938Z,8.82
2018-12-31T23:53:42.207Z,8.84
2018-12-31T23:56:12.815Z,8.84
2018-12-31T23:58:43.504Z,8.82
